createdAt,value
2022-08-01T00:00:45.711Z,63.03
2022-08-01T00:05:49.951Z,63.26
2022-08-01T00:10:52.714Z,63.76
2022-08-01T00:15:55.408Z,64.02
2022-08-01T00:20:59.776Z,63.92
2022-08-01T00:26:02.790Z,64.13
2022-08-01T00:31:05.549Z,64.11
2022-08-01T00:36:09.774Z,64.17
2022-08-01T00:41:12.657Z,64.18
2022-08-01T00:46:15.745Z,63.71
2022-08-01T00:51:19.973Z,64.09
2022-08-01T00:56:23.837Z,64.37
2022-08-01T01:01:39.271Z,64.62
2022-08-01T01:06:50.702Z,64.85
2022-08-01T01:12:00.481Z,64.62
2022-08-01T01:17:04.991Z,64.59
2022-08-01T01:22:21.514Z,65.10
2022-08-01T01:27:31.463Z,65.16
2022-08-01T01:32:38.281Z,65.31
2022-08-01T01:37:41.857Z,65.96
2022-08-01T01:42:45.513Z,65.87
2022-08-01T01:47:50.081Z,66.61
2022-08-01T01:52:53.360Z,66.78
2022-08-01T01:57:57.877Z,66.66
2022-08-01T02:03:03.583Z,66.91
2022-08-01T02:08:07.005Z,67.52
2022-08-01T02:13:11.950Z,67.62
2022-08-01T02:18:17.128Z,67.37
2022-08-01T02:23:23.220Z,68.02
2022-08-01T02:28:29.199Z,67.87
2022-08-01T02:33:37.329Z,68.20
2022-08-01T02:38:45.394Z,68.39
2022-08-01T02:43:53.347Z,68.89
2022-08-01T02:48:58.954Z,68.75
2022-08-01T02:54:04.197Z,68.72
2022-08-01T02:59:10.140Z,68.97
2022-08-01T03:04:14.890Z,68.82
2022-08-01T03:09:17.778Z,69.61
2022-08-01T03:14:23.022Z,69.57
2022-08-01T03:19:29.954Z,69.74
2022-08-01T03:24:33.323Z,69.51
2022-08-01T03:29:36.791Z,69.66
2022-08-01T03:34:40.978Z,69.55
2022-08-01T03:39:49.636Z,69.60
2022-08-01T03:45:13.524Z,69.49
2022-08-01T03:50:18.817Z,69.18
2022-08-01T03:55:22.886Z,69.27
2022-08-01T04:00:26.500Z,69.63
2022-08-01T04:05:30.688Z,70.18
2022-08-01T04:10:33.613Z,70.80
2022-08-01T04:15:37.080Z,70.78
2022-08-01T04:20:41.598Z,71.09
2022-08-01T04:25:45.325Z,71.53
2022-08-01T04:30:48.866Z,71.69
2022-08-01T04:36:02.639Z,71.73
2022-08-01T04:41:09.909Z,72.10
2022-08-01T04:46:13.025Z,72.22
2022-08-01T04:51:18.003Z,72.96
2022-08-01T04:56:21.733Z,73.11
2022-08-01T05:01:24.567Z,73.23
2022-08-01T05:06:28.657Z,72.99
2022-08-01T05:11:31.851Z,73.16
2022-08-01T05:16:34.754Z,72.87
2022-08-01T05:21:39.010Z,73.01
2022-08-01T05:26:41.874Z,73.69
2022-08-01T05:31:44.787Z,74.02
2022-08-01T05:36:52.964Z,73.70
2022-08-01T05:41:59.562Z,73.46
2022-08-01T05:47:03.627Z,74.38
2022-08-01T05:52:08.739Z,74.50
2022-08-01T05:57:11.724Z,73.52
2022-08-01T06:02:15.286Z,72.97
2022-08-01T06:07:19.506Z,73.25
2022-08-01T06:12:22.341Z,73.37
2022-08-01T06:17:26.089Z,72.88
2022-08-01T06:22:30.170Z,72.84
2022-08-01T06:27:36.159Z,72.76
2022-08-01T06:32:38.918Z,73.07
2022-08-01T06:37:43.626Z,73.47
2022-08-01T06:42:46.800Z,73.32
2022-08-01T06:47:50.475Z,73.71
2022-08-01T06:52:55.062Z,74.20
2022-08-01T06:57:58.179Z,74.04
2022-08-01T07:03:01.397Z,73.78
2022-08-01T07:08:06.001Z,74.11
2022-08-01T07:13:08.921Z,74.05
2022-08-01T07:18:11.649Z,73.95
2022-08-01T07:23:15.848Z,73.84
2022-08-01T07:28:18.650Z,74.16
2022-08-01T07:33:21.346Z,74.14
2022-08-01T07:38:25.594Z,74.19
2022-08-01T07:43:28.328Z,74.44
2022-08-01T07:48:31.252Z,75.09
2022-08-01T07:53:35.287Z,74.70
2022-08-01T07:58:38.012Z,73.39
2022-08-01T08:03:40.929Z,73.60
2022-08-01T08:08:45.021Z,74.18
2022-08-01T08:13:47.813Z,74.71
2022-08-01T08:18:50.566Z,76.82
2022-08-01T08:24:12.021Z,77.94
2022-08-01T08:29:15.870Z,77.88
2022-08-01T08:34:18.753Z,77.51
2022-08-01T08:39:23.080Z,76.68
2022-08-01T08:44:25.890Z,76.85
2022-08-01T08:49:35.912Z,76.12
2022-08-01T08:54:43.361Z,75.02
2022-08-01T08:59:46.497Z,74.20
2022-08-01T09:04:50.464Z,73.29
2022-08-01T09:09:54.498Z,73.06
2022-08-01T09:14:57.251Z,72.48
2022-08-01T09:20:00.023Z,72.40
2022-08-01T09:25:08.318Z,72.40
2022-08-01T09:30:13.270Z,71.16
2022-08-01T09:35:31.160Z,69.81
2022-08-01T09:40:51.516Z,70.52
2022-08-01T09:45:55.034Z,70.47
2022-08-01T09:51:04.382Z,70.93
2022-08-01T09:56:13.041Z,70.13
2022-08-01T10:01:15.799Z,68.13
2022-08-01T10:06:25.053Z,68.20
2022-08-01T10:11:36.118Z,68.28
2022-08-01T10:16:41.262Z,68.79
2022-08-01T10:21:58.737Z,69.57
2022-08-01T10:27:08.299Z,69.03
2022-08-01T10:32:12.299Z,68.03
2022-08-01T10:37:15.898Z,67.14
2022-08-01T10:42:20.258Z,66.78
2022-08-01T10:47:49.935Z,67.11
2022-08-01T10:53:15.287Z,66.41
2022-08-01T10:58:25.416Z,66.04
2022-08-01T11:03:56.104Z,66.18
2022-08-01T11:09:00.182Z,66.33
2022-08-01T11:14:09.294Z,65.84
2022-08-01T11:19:12.322Z,66.04
2022-08-01T11:24:15.234Z,65.08
2022-08-01T11:29:22.445Z,64.52
2022-08-01T11:34:54.472Z,65.77
2022-08-01T11:40:16.366Z,65.81
2022-08-01T11:45:21.772Z,64.78
2022-08-01T11:50:35.145Z,62.21
2022-08-01T11:55:38.094Z,62.00
2022-08-01T12:00:44.049Z,62.07
2022-08-01T12:05:49.923Z,61.58
2022-08-01T12:10:52.696Z,61.02
2022-08-01T12:16:11.485Z,59.65
2022-08-01T12:21:14.283Z,58.50
2022-08-01T12:26:28.610Z,57.86
2022-08-01T12:31:36.741Z,59.65
2022-08-01T12:36:39.494Z,54.72
2022-08-01T12:41:44.959Z,50.16
2022-08-01T12:46:53.571Z,55.09
2022-08-01T12:51:57.709Z,57.06
2022-08-01T12:57:00.505Z,58.04
2022-08-01T13:02:12.103Z,57.07
2022-08-01T13:07:14.875Z,57.42
2022-08-01T13:12:17.705Z,54.96
2022-08-01T13:17:33.436Z,55.62
2022-08-01T13:22:36.683Z,55.29
2022-08-01T13:27:39.466Z,55.07
2022-08-01T13:33:01.318Z,55.03
2022-08-01T13:38:04.200Z,55.79
2022-08-01T13:43:07.096Z,52.91
2022-08-01T13:48:12.889Z,54.24
2022-08-01T13:53:22.205Z,56.90
2022-08-01T13:58:25.567Z,56.63
2022-08-01T14:03:33.756Z,52.85
2022-08-01T14:08:36.918Z,55.27
2022-08-01T14:13:45.107Z,51.69
2022-08-01T14:18:51.372Z,53.32
2022-08-01T14:23:55.262Z,53.85
2022-08-01T14:28:58.333Z,52.00
2022-08-01T14:34:02.603Z,37.76
2022-08-01T14:39:05.323Z,37.73
2022-08-01T14:44:09.921Z,37.58
2022-08-01T14:49:14.326Z,40.91
2022-08-01T14:54:17.021Z,35.86
2022-08-01T14:59:30.023Z,42.07
2022-08-01T15:04:34.086Z,41.79
2022-08-01T15:09:36.854Z,37.96
2022-08-01T15:14:51.494Z,42.16
2022-08-01T15:19:56.503Z,41.25
2022-08-01T15:25:01.611Z,41.67
2022-08-01T15:30:06.065Z,43.09
2022-08-01T15:35:12.012Z,44.66
2022-08-01T15:40:14.848Z,44.29
2022-08-01T15:45:45.782Z,47.30
2022-08-01T15:50:44.315Z,49.02
2022-08-01T15:55:52.663Z,46.77
2022-08-01T16:00:55.653Z,47.70
2022-08-01T16:05:59.812Z,48.49
2022-08-01T16:11:03.181Z,48.46
2022-08-01T16:16:06.464Z,48.21
2022-08-01T16:21:11.816Z,47.66
2022-08-01T16:26:27.112Z,46.11
2022-08-01T16:31:37.572Z,47.41
2022-08-01T16:36:56.412Z,48.13
2022-08-01T16:41:59.277Z,49.17
2022-08-01T16:47:05.435Z,50.56
2022-08-01T16:52:10.151Z,50.57
2022-08-01T16:57:13.612Z,50.14
2022-08-01T17:02:16.824Z,50.38
2022-08-01T17:07:20.967Z,51.18
2022-08-01T17:12:24.022Z,52.42
2022-08-01T17:17:26.966Z,51.87
2022-08-01T17:22:31.541Z,51.69
2022-08-01T17:27:34.303Z,51.57
2022-08-01T17:32:37.371Z,51.10
2022-08-01T17:37:41.392Z,51.22
2022-08-01T17:42:44.549Z,51.63
2022-08-01T17:47:50.787Z,52.38
2022-08-01T17:52:55.257Z,52.58
2022-08-01T17:57:58.047Z,52.77
2022-08-01T18:03:00.813Z,53.09
2022-08-01T18:08:07.834Z,53.52
2022-08-01T18:13:10.658Z,53.74
2022-08-01T18:18:14.017Z,54.01
2022-08-01T18:23:18.227Z,54.34
2022-08-01T18:28:31.392Z,54.36
2022-08-01T18:33:37.245Z,54.72
2022-08-01T18:38:44.172Z,55.26
2022-08-01T18:43:48.608Z,55.36
2022-08-01T18:48:51.485Z,55.67
2022-08-01T18:53:57.763Z,56.78
2022-08-01T18:59:00.541Z,57.04
2022-08-01T19:04:03.493Z,57.44
2022-08-01T19:09:07.948Z,57.75
2022-08-01T19:14:11.779Z,58.05
2022-08-01T19:19:14.598Z,58.24
2022-08-01T19:24:31.960Z,58.39
2022-08-01T19:29:36.881Z,58.64
2022-08-01T19:34:49.778Z,58.60
2022-08-01T19:39:53.887Z,59.02
2022-08-01T19:44:57.847Z,59.47
2022-08-01T19:50:01.434Z,60.01
2022-08-01T19:55:06.920Z,60.38
2022-08-01T20:00:23.892Z,60.69
2022-08-01T20:05:31.267Z,61.52
2022-08-01T20:10:37.438Z,62.34
2022-08-01T20:15:40.167Z,61.97
2022-08-01T20:20:44.762Z,62.86
2022-08-01T20:25:51.709Z,63.01
2022-08-01T20:30:56.671Z,63.10
2022-08-01T20:36:00.860Z,62.96
2022-08-01T20:41:06.485Z,63.96
2022-08-01T20:46:09.494Z,64.54
2022-08-01T20:51:19.473Z,64.35
2022-08-01T20:56:30.493Z,64.35
2022-08-01T21:01:39.840Z,64.42
2022-08-01T21:06:45.178Z,64.39
2022-08-01T21:11:51.641Z,64.76
2022-08-01T21:16:59.892Z,65.10
2022-08-01T21:22:09.970Z,65.28
2022-08-01T21:27:17.142Z,65.71
2022-08-01T21:32:22.724Z,65.60
2022-08-01T21:37:25.523Z,66.00
2022-08-01T21:42:29.821Z,66.04
2022-08-01T21:47:32.599Z,66.18
2022-08-01T21:52:43.432Z,66.65
2022-08-01T21:58:13.680Z,66.76
2022-08-01T22:03:24.180Z,67.45
2022-08-01T22:08:30.766Z,67.77
2022-08-01T22:13:35.712Z,69.22
2022-08-01T22:18:39.747Z,69.50
2022-08-01T22:23:43.305Z,69.27
2022-08-01T22:28:47.525Z,69.28
2022-08-01T22:33:50.554Z,69.09
2022-08-01T22:38:53.241Z,69.50
2022-08-01T22:44:01.876Z,69.43
2022-08-01T22:49:11.492Z,69.54
2022-08-01T22:54:16.224Z,69.32
2022-08-01T22:59:27.998Z,69.50
2022-08-01T23:04:47.381Z,69.74
2022-08-01T23:09:53.921Z,69.73
2022-08-01T23:15:00.314Z,69.90
2022-08-01T23:20:06.018Z,69.90
2022-08-01T23:25:11.239Z,70.06
2022-08-01T23:30:15.430Z,71.05
2022-08-01T23:35:18.472Z,70.96
2022-08-01T23:40:24.999Z,70.24
2022-08-01T23:46:02.602Z,71.02
2022-08-01T23:50:52.793Z,71.05
2022-08-01T23:55:55.675Z,70.96
